Time;durP1;ratioP1;P1;durP2;ratioP2;P2;SDS_P1;SDS_P2;PMS_P1;PMS_P2;Temp;Humidity;BMP_temperature;BMP_pressure;BME280_temperature;BME280_humidity;BME280_pressure;Samples;Min_cycle;Max_cycle;Signal;HPM_P1;HPM_P2
2023/06/24 00:00:56;;;;;;;4.97;3.60;;;19.90;99.90;;;;;;5055476;28;20021;-83
2023/06/24 00:03:22;;;;;;;3.95;3.20;;;19.90;99.90;;;;;;5050673;28;20036;-82
2023/06/24 00:05:49;;;;;;;5.97;3.35;;;19.90;99.90;;;;;;5049195;28;20398;-82
2023/06/24 00:08:19;;;;;;;5.95;3.75;;;19.90;99.90;;;;;;5057444;28;20021;-83
2023/06/24 00:10:47;;;;;;;5.18;3.22;;;19.80;99.90;;;;;;5024339;28;20032;-83
2023/06/24 00:13:14;;;;;;;5.38;3.75;;;19.80;99.90;;;;;;5053924;28;20030;-82
2023/06/24 00:15:42;;;;;;;3.95;3.10;;;19.80;99.90;;;;;;5022298;28;20060;-82
2023/06/24 00:18:11;;;;;;;4.28;3.20;;;19.80;99.90;;;;;;5035669;28;20040;-83
2023/06/24 00:20:37;;;;;;;4.22;3.28;;;19.80;99.90;;;;;;5055174;28;20167;-82
2023/06/24 00:23:04;;;;;;;5.35;3.38;;;19.80;99.90;;;;;;5038564;28;20025;-83
2023/06/24 00:25:30;;;;;;;4.80;3.53;;;19.60;99.90;;;;;;5047173;28;20028;-83
2023/06/24 00:27:56;;;;;;;5.57;3.63;;;19.60;99.90;;;;;;5057010;28;20029;-82
2023/06/24 00:30:22;;;;;;;4.53;3.22;;;19.50;99.90;;;;;;5038151;28;20029;-83
2023/06/24 00:32:48;;;;;;;4.65;3.60;;;19.30;99.90;;;;;;5053638;28;20418;-83
2023/06/24 00:35:14;;;;;;;4.70;3.47;;;19.20;99.90;;;;;;5054875;28;20075;-84
2023/06/24 00:37:40;;;;;;;6.53;3.35;;;19.30;99.90;;;;;;5054583;28;20033;-82
2023/06/24 00:40:11;;;;;;;4.57;3.28;;;19.20;99.90;;;;;;5041974;28;20029;-83
2023/06/24 00:42:37;;;;;;;5.22;3.88;;;19.10;99.90;;;;;;5053297;28;20032;-83
2023/06/24 00:45:04;;;;;;;7.47;3.50;;;19.10;99.90;;;;;;5054707;28;20033;-83
2023/06/24 00:47:31;;;;;;;7.97;3.60;;;19.10;99.90;;;;;;5044008;28;20021;-82
2023/06/24 00:49:57;;;;;;;4.30;3.13;;;19.00;99.90;;;;;;5043503;28;20044;-83
2023/06/24 00:52:23;;;;;;;4.82;3.28;;;19.00;99.90;;;;;;5054932;28;20029;-83
2023/06/24 00:54:49;;;;;;;4.97;3.30;;;18.80;99.90;;;;;;5049159;28;20017;-88
2023/06/24 00:57:17;;;;;;;4.07;3.22;;;18.90;99.90;;;;;;5053724;28;20369;-87
2023/06/24 00:59:45;;;;;;;4.05;2.97;;;18.90;99.90;;;;;;5055086;28;20053;-88
2023/06/24 01:02:11;;;;;;;5.40;3.53;;;18.90;99.90;;;;;;5054142;28;20033;-87
2023/06/24 01:04:37;;;;;;;4.00;3.33;;;18.90;99.90;;;;;;5038210;28;20674;-92
2023/06/24 01:07:05;;;;;;;5.05;3.58;;;18.90;99.90;;;;;;5050610;28;20028;-87
2023/06/24 01:09:31;;;;;;;5.85;3.40;;;18.80;99.90;;;;;;5037228;28;20409;-89
2023/06/24 01:11:56;;;;;;;6.28;3.20;;;18.80;99.90;;;;;;5047280;28;20025;-87
2023/06/24 01:14:23;;;;;;;5.43;3.20;;;18.80;99.90;;;;;;5026782;28;20057;-88
2023/06/24 01:17:07;;;;;;;3.80;3.13;;;18.80;99.90;;;;;;5038317;28;20032;-90
2023/06/24 01:19:41;;;;;;;5.82;3.38;;;18.80;99.90;;;;;;5046233;28;20048;-86
2023/06/24 01:22:49;;;;;;;3.72;2.67;;;18.70;99.90;;;;;;5036430;28;20029;-87
2023/06/24 01:25:27;;;;;;;5.05;2.95;;;18.70;99.90;;;;;;4996398;28;20029;-87
2023/06/24 01:28:30;;;;;;;5.78;3.40;;;18.60;99.90;;;;;;5054133;28;20036;-86
2023/06/24 01:31:10;;;;;;;4.60;3.22;;;18.60;99.90;;;;;;5022348;28;20108;-87
2023/06/24 01:33:44;;;;;;;4.30;3.13;;;18.50;99.90;;;;;;5037042;28;20057;-87
2023/06/24 01:36:13;;;;;;;5.45;3.30;;;18.50;99.90;;;;;;5048709;28;20599;-87
2023/06/24 01:38:51;;;;;;;6.75;3.58;;;18.50;99.90;;;;;;5036990;28;20031;-87
2023/06/24 01:41:23;;;;;;;3.90;2.97;;;18.50;99.90;;;;;;5053771;28;20033;-88
2023/06/24 01:43:53;;;;;;;6.75;3.15;;;18.50;99.90;;;;;;5034549;28;20036;-86
2023/06/24 01:46:22;;;;;;;4.90;3.10;;;18.50;99.90;;;;;;5033414;28;20029;-85
2023/06/24 01:48:51;;;;;;;5.45;3.55;;;18.50;99.90;;;;;;5052167;28;20024;-84
2023/06/24 01:51:19;;;;;;;5.38;3.03;;;18.60;99.90;;;;;;5041575;28;20029;-84
2023/06/24 01:53:52;;;;;;;4.10;2.97;;;18.50;99.90;;;;;;5054195;28;20050;-85
2023/06/24 01:56:21;;;;;;;3.90;3.13;;;18.50;99.90;;;;;;5049885;28;20036;-85
2023/06/24 01:58:48;;;;;;;4.22;2.90;;;18.50;99.90;;;;;;5037149;28;20049;-85
2023/06/24 02:01:14;;;;;;;7.90;3.25;;;18.50;99.90;;;;;;5048859;28;20090;-85
2023/06/24 02:03:42;;;;;;;6.82;3.03;;;18.50;99.90;;;;;;5051502;28;20053;-85
2023/06/24 02:06:09;;;;;;;4.53;3.30;;;18.50;99.90;;;;;;5045831;28;20025;-85
2023/06/24 02:08:38;;;;;;;4.63;3.38;;;18.40;99.90;;;;;;5052124;28;20082;-85
2023/06/24 02:11:04;;;;;;;5.43;3.58;;;18.40;99.90;;;;;;5049550;28;20025;-85
2023/06/24 02:13:32;;;;;;;7.13;3.15;;;18.30;99.90;;;;;;5052952;28;20036;-85
2023/06/24 02:16:00;;;;;;;6.57;3.50;;;18.30;99.90;;;;;;5036104;28;20091;-83
2023/06/24 02:18:27;;;;;;;5.53;3.00;;;18.30;99.90;;;;;;5050402;28;20167;-85
2023/06/24 02:20:55;;;;;;;5.20;3.67;;;18.20;99.90;;;;;;5053200;28;20072;-85
2023/06/24 02:23:22;;;;;;;4.55;3.22;;;18.20;99.90;;;;;;5053571;28;20023;-85
2023/06/24 02:25:49;;;;;;;3.67;2.90;;;18.20;99.90;;;;;;5045773;28;20024;-84
2023/06/24 02:28:16;;;;;;;4.50;3.13;;;18.30;99.90;;;;;;5053563;28;20024;-86
2023/06/24 02:30:43;;;;;;;4.47;3.30;;;18.20;99.90;;;;;;5052689;28;20492;-85
2023/06/24 02:33:11;;;;;;;4.07;3.10;;;18.10;99.90;;;;;;5039448;28;20103;-86
2023/06/24 02:35:41;;;;;;;6.05;3.15;;;18.10;99.90;;;;;;5045328;28;20028;-86
2023/06/24 02:38:07;;;;;;;7.47;3.47;;;18.10;99.90;;;;;;5047613;28;20039;-85
2023/06/24 02:40:33;;;;;;;6.38;3.63;;;18.20;99.90;;;;;;5037464;28;20132;-85
2023/06/24 02:42:59;;;;;;;8.15;3.85;;;18.10;99.90;;;;;;5047494;28;20116;-85
2023/06/24 02:45:26;;;;;;;4.78;3.42;;;18.20;99.90;;;;;;5025929;28;20131;-85
2023/06/24 02:47:53;;;;;;;5.55;3.97;;;18.10;99.90;;;;;;5035660;28;20025;-85
2023/06/24 02:50:20;;;;;;;4.88;3.45;;;18.10;99.90;;;;;;5036335;28;20462;-85
2023/06/24 02:52:47;;;;;;;4.60;3.17;;;18.00;99.90;;;;;;5052646;28;20021;-85
2023/06/24 02:55:14;;;;;;;5.25;3.75;;;18.00;99.90;;;;;;5040521;28;20029;-85
2023/06/24 02:57:40;;;;;;;7.75;3.83;;;18.00;99.90;;;;;;5044690;28;20029;-84
2023/06/24 03:00:12;;;;;;;5.25;4.03;;;18.00;99.90;;;;;;5047486;28;20048;-85
2023/06/24 03:02:38;;;;;;;6.50;4.07;;;18.00;99.90;;;;;;5037240;28;20032;-85
2023/06/24 03:05:05;;;;;;;7.20;4.07;;;18.00;99.90;;;;;;5049497;28;20028;-85
2023/06/24 03:07:34;;;;;;;7.13;4.30;;;17.90;99.90;;;;;;5043016;28;20053;-84
2023/06/24 03:10:02;;;;;;;8.20;4.07;;;17.90;99.90;;;;;;5052498;28;20112;-85
2023/06/24 03:12:28;;;;;;;6.68;4.03;;;17.90;99.90;;;;;;5038163;28;20021;-84
2023/06/24 03:14:54;;;;;;;5.93;4.10;;;17.90;99.90;;;;;;5040167;28;20025;-85
2023/06/24 03:17:20;;;;;;;6.95;4.55;;;17.90;99.90;;;;;;5041495;28;20025;-85
2023/06/24 03:19:45;;;;;;;6.07;4.47;;;17.90;99.90;;;;;;5043655;28;20040;-85
2023/06/24 03:22:11;;;;;;;8.27;4.35;;;17.90;99.90;;;;;;5047456;28;20036;-85
2023/06/24 03:24:37;;;;;;;7.38;4.30;;;17.90;99.90;;;;;;5037172;28;20195;-84
2023/06/24 03:27:03;;;;;;;6.38;4.38;;;17.90;99.90;;;;;;5052389;28;20025;-85
2023/06/24 03:29:28;;;;;;;6.53;4.47;;;17.90;99.90;;;;;;5056755;28;20059;-85
2023/06/24 03:31:54;;;;;;;5.95;4.00;;;17.90;99.90;;;;;;5045514;28;20497;-84
2023/06/24 03:34:19;;;;;;;6.15;4.20;;;17.90;99.90;;;;;;5039153;28;20028;-85
2023/06/24 03:36:45;;;;;;;8.98;4.65;;;17.90;99.90;;;;;;5056937;28;20086;-85
2023/06/24 03:39:11;;;;;;;6.78;4.32;;;17.90;99.90;;;;;;5051422;28;20428;-85
2023/06/24 03:41:37;;;;;;;7.40;4.10;;;17.70;99.90;;;;;;5056560;28;20080;-84
2023/06/24 03:44:02;;;;;;;5.53;3.88;;;17.80;99.90;;;;;;5030591;28;20080;-84
2023/06/24 03:46:32;;;;;;;6.15;4.28;;;17.70;99.90;;;;;;5037119;28;20033;-83
2023/06/24 03:48:58;;;;;;;8.55;4.60;;;17.80;99.90;;;;;;5052677;28;20025;-83
2023/06/24 03:51:24;;;;;;;5.57;3.95;;;17.80;99.90;;;;;;5044448;28;20532;-84
2023/06/24 03:53:50;;;;;;;6.90;4.40;;;17.80;99.90;;;;;;5045863;28;20111;-84
2023/06/24 03:56:16;;;;;;;6.35;4.03;;;17.80;99.90;;;;;;5056190;28;20095;-84
2023/06/24 03:58:41;;;;;;;6.97;4.05;;;17.80;99.90;;;;;;5038438;28;20482;-87
2023/06/24 04:01:09;;;;;;;9.35;4.10;;;17.60;99.90;;;;;;5051149;28;20036;-86
2023/06/24 04:03:35;;;;;;;7.20;4.38;;;17.60;99.90;;;;;;5045837;28;20492;-86
2023/06/24 04:06:01;;;;;;;5.75;3.85;;;17.50;99.90;;;;;;5055644;28;20051;-86
2023/06/24 04:08:30;;;;;;;8.90;3.75;;;17.40;99.90;;;;;;5052729;28;20070;-86
2023/06/24 04:11:03;;;;;;;7.38;3.95;;;17.40;99.90;;;;;;5055588;28;20087;-86
2023/06/24 04:13:29;;;;;;;8.98;3.33;;;17.40;99.90;;;;;;5034910;28;20041;-86
2023/06/24 04:15:55;;;;;;;7.00;3.88;;;17.40;99.90;;;;;;5031445;28;20025;-87
2023/06/24 04:18:20;;;;;;;7.18;3.78;;;17.40;99.90;;;;;;5051890;28;20079;-83
2023/06/24 04:20:46;;;;;;;10.77;3.70;;;17.50;99.90;;;;;;5055639;28;20044;-83
2023/06/24 04:23:14;;;;;;;6.20;3.15;;;17.50;99.90;;;;;;5055210;28;20482;-83
2023/06/24 04:25:40;;;;;;;5.88;3.65;;;17.50;99.90;;;;;;5046069;28;20025;-84
2023/06/24 04:28:06;;;;;;;8.75;3.85;;;17.40;99.90;;;;;;5042610;28;20028;-83
2023/06/24 04:30:35;;;;;;;5.18;3.35;;;17.50;99.90;;;;;;5052624;28;20024;-83
2023/06/24 04:33:01;;;;;;;4.93;3.58;;;17.40;99.90;;;;;;5051503;28;20059;-84
2023/06/24 04:35:26;;;;;;;3.65;3.15;;;17.50;99.90;;;;;;5043914;28;20052;-83
2023/06/24 04:37:52;;;;;;;4.65;3.50;;;17.40;99.90;;;;;;5052661;28;20029;-84
2023/06/24 04:40:19;;;;;;;5.97;3.30;;;17.40;99.90;;;;;;5054578;28;20059;-84
2023/06/24 04:42:45;;;;;;;4.40;3.30;;;17.40;99.90;;;;;;5040243;28;20504;-83
2023/06/24 04:45:11;;;;;;;6.90;3.28;;;17.40;99.90;;;;;;5053072;28;20188;-84
2023/06/24 04:47:37;;;;;;;5.63;3.30;;;17.50;99.90;;;;;;5051525;28;20017;-83
2023/06/24 04:50:03;;;;;;;4.95;3.30;;;17.50;99.90;;;;;;5053031;28;20397;-82
2023/06/24 04:52:28;;;;;;;6.10;3.72;;;17.60;99.90;;;;;;5054494;28;20048;-83
2023/06/24 04:54:54;;;;;;;4.78;3.13;;;17.70;99.90;;;;;;5054052;28;20025;-83
2023/06/24 04:57:31;;;;;;;4.22;3.28;;;17.70;99.90;;;;;;5054764;28;20020;-83
2023/06/24 04:59:57;;;;;;;5.97;3.05;;;17.70;99.90;;;;;;5051136;28;20072;-83
2023/06/24 05:02:23;;;;;;;5.43;3.78;;;17.80;99.90;;;;;;5054489;28;20040;-83
2023/06/24 05:04:49;;;;;;;6.05;3.00;;;17.80;99.90;;;;;;5054716;28;20096;-84
2023/06/24 05:07:15;;;;;;;4.40;3.15;;;17.90;99.90;;;;;;5050773;28;20025;-84
2023/06/24 05:09:41;;;;;;;4.40;3.42;;;18.00;99.90;;;;;;5054489;28;20076;-83
2023/06/24 05:12:07;;;;;;;5.53;3.28;;;18.00;99.90;;;;;;5050239;28;20025;-83
2023/06/24 05:14:37;;;;;;;6.80;3.22;;;18.00;99.90;;;;;;5039798;28;20484;-84
2023/06/24 05:17:03;;;;;;;4.20;3.30;;;18.00;99.90;;;;;;5051789;28;20029;-84
2023/06/24 05:19:29;;;;;;;6.78;3.63;;;18.00;99.90;;;;;;5052081;28;20481;-84
2023/06/24 05:21:54;;;;;;;3.60;2.90;;;18.00;99.90;;;;;;5054267;28;20060;-84
2023/06/24 05:24:20;;;;;;;5.40;3.38;;;17.90;99.90;;;;;;5054655;28;20428;-84
2023/06/24 05:26:49;;;;;;;4.20;2.97;;;17.90;99.90;;;;;;5051651;28;20462;-83
2023/06/24 05:29:14;;;;;;;5.43;3.20;;;17.90;99.90;;;;;;5050657;28;20044;-84
2023/06/24 05:31:41;;;;;;;3.55;3.10;;;18.00;99.90;;;;;;5051430;28;20470;-84
2023/06/24 05:34:07;;;;;;;4.85;3.00;;;18.10;99.90;;;;;;5042705;28;20021;-84
2023/06/24 05:36:33;;;;;;;5.18;2.95;;;18.20;99.90;;;;;;5037297;28;20036;-83
2023/06/24 05:38:59;;;;;;;5.72;3.30;;;18.20;99.90;;;;;;5051334;28;20025;-84
2023/06/24 05:41:24;;;;;;;4.80;3.05;;;18.30;99.90;;;;;;5048242;28;20116;-84
2023/06/24 05:44:02;;;;;;;5.03;3.53;;;18.30;99.90;;;;;;5034681;28;20036;-84
2023/06/24 05:46:27;;;;;;;6.95;3.50;;;18.40;99.90;;;;;;5049975;28;20127;-84
2023/06/24 05:48:53;;;;;;;6.05;3.45;;;18.50;99.90;;;;;;5036872;28;20068;-84
2023/06/24 05:51:18;;;;;;;5.53;3.22;;;18.50;99.90;;;;;;5053732;28;20029;-83
2023/06/24 05:53:44;;;;;;;4.85;3.17;;;18.40;99.90;;;;;;5037449;28;20033;-83
2023/06/24 05:56:09;;;;;;;4.05;3.42;;;18.50;99.90;;;;;;5047527;28;20417;-83
2023/06/24 05:58:35;;;;;;;4.72;3.20;;;18.50;99.90;;;;;;5050862;28;20049;-85
2023/06/24 06:01:01;;;;;;;6.85;3.47;;;18.50;99.90;;;;;;5050203;28;20040;-83
2023/06/24 06:03:26;;;;;;;5.20;3.28;;;18.50;99.90;;;;;;5046302;28;20056;-84
2023/06/24 06:05:52;;;;;;;4.28;2.95;;;18.60;99.90;;;;;;5036878;28;20067;-84
2023/06/24 06:08:17;;;;;;;6.65;3.22;;;18.70;99.90;;;;;;5037574;28;20025;-84
2023/06/24 06:10:43;;;;;;;5.00;2.83;;;18.70;99.90;;;;;;5050288;28;20124;-85
2023/06/24 06:13:09;;;;;;;3.75;2.92;;;18.70;99.90;;;;;;5048863;28;20117;-85
2023/06/24 06:15:34;;;;;;;5.72;3.25;;;18.80;99.90;;;;;;5032167;28;20021;-85
2023/06/24 06:18:00;;;;;;;3.88;2.95;;;18.90;99.90;;;;;;5036770;28;20033;-84
2023/06/24 06:20:25;;;;;;;3.72;2.97;;;18.80;99.90;;;;;;5049186;28;20041;-86
2023/06/24 06:22:51;;;;;;;5.65;3.35;;;18.90;99.90;;;;;;5050586;28;20033;-85
2023/06/24 06:25:18;;;;;;;5.05;3.33;;;19.00;99.90;;;;;;5050928;28;20104;-87
2023/06/24 06:27:43;;;;;;;4.13;3.00;;;19.10;99.90;;;;;;5050154;28;20128;-87
2023/06/24 06:30:09;;;;;;;7.55;3.30;;;19.20;99.90;;;;;;5050322;28;20025;-85
2023/06/24 06:32:35;;;;;;;4.38;2.70;;;19.20;99.90;;;;;;5049933;28;20036;-84
2023/06/24 06:35:00;;;;;;;5.13;3.25;;;19.20;99.90;;;;;;5050134;28;20025;-84
2023/06/24 06:37:26;;;;;;;5.50;3.55;;;19.20;99.90;;;;;;5053023;28;20039;-85
2023/06/24 06:39:52;;;;;;;6.78;2.83;;;19.30;99.90;;;;;;5050127;28;20040;-84
2023/06/24 06:42:17;;;;;;;9.50;3.22;;;19.40;99.90;;;;;;5034980;28;20052;-86
2023/06/24 06:44:43;;;;;;;5.32;3.10;;;19.40;99.90;;;;;;5035396;28;20028;-86
2023/06/24 06:47:09;;;;;;;3.83;3.17;;;19.50;99.90;;;;;;5044506;28;20044;-86
2023/06/24 06:49:35;;;;;;;5.28;3.55;;;19.50;99.90;;;;;;5050986;28;20481;-86
2023/06/24 06:52:00;;;;;;;5.00;3.15;;;19.60;99.90;;;;;;5052857;28;20033;-86
2023/06/24 06:54:26;;;;;;;3.72;3.10;;;19.60;99.90;;;;;;5051270;28;20028;-88
2023/06/24 06:56:52;;;;;;;5.88;2.80;;;19.60;99.90;;;;;;5052612;28;20033;-83
2023/06/24 06:59:17;;;;;;;6.43;2.90;;;19.70;99.90;;;;;;5032214;28;20076;-84
2023/06/24 07:01:43;;;;;;;4.45;2.97;;;19.80;99.90;;;;;;5036748;28;20046;-87
2023/06/24 07:04:09;;;;;;;4.68;3.13;;;19.80;99.90;;;;;;5037203;28;20105;-87
2023/06/24 07:06:34;;;;;;;4.20;3.05;;;19.90;99.90;;;;;;5035870;28;20454;-87
2023/06/24 07:09:00;;;;;;;4.43;3.03;;;19.90;99.90;;;;;;5035782;28;20021;-88
2023/06/24 07:11:25;;;;;;;5.28;2.85;;;19.90;99.90;;;;;;5036203;28;20061;-87
2023/06/24 07:13:52;;;;;;;4.05;2.80;;;20.00;99.90;;;;;;5030064;28;20037;-86
2023/06/24 07:16:18;;;;;;;3.50;2.80;;;20.10;99.90;;;;;;5036895;28;20061;-87
2023/06/24 07:18:43;;;;;;;4.50;3.10;;;20.10;99.90;;;;;;5035832;28;20033;-89
2023/06/24 07:21:09;;;;;;;4.63;3.10;;;20.20;99.90;;;;;;5035400;28;20038;-90
2023/06/24 07:23:35;;;;;;;4.75;2.63;;;20.20;99.90;;;;;;5037793;28;20032;-91
2023/06/24 07:26:00;;;;;;;4.50;3.20;;;20.20;99.90;;;;;;5035681;28;20048;-91
2023/06/24 07:28:26;;;;;;;3.95;2.83;;;20.30;99.90;;;;;;5036873;28;20092;-89
2023/06/24 07:30:51;;;;;;;6.15;2.92;;;20.30;99.90;;;;;;5036707;28;20028;-87
2023/06/24 07:33:17;;;;;;;4.28;2.97;;;20.40;99.90;;;;;;5035968;28;20023;-91
2023/06/24 07:35:42;;;;;;;5.82;3.17;;;20.50;99.90;;;;;;5035735;28;20048;-91
2023/06/24 07:38:08;;;;;;;5.43;2.78;;;20.50;99.90;;;;;;5034967;28;20040;-87
2023/06/24 07:40:34;;;;;;;3.35;2.75;;;20.50;99.90;;;;;;5034782;28;20493;-89
2023/06/24 07:42:59;;;;;;;4.13;3.30;;;20.60;99.90;;;;;;5026289;28;20057;-90
2023/06/24 07:45:25;;;;;;;6.13;3.22;;;20.70;99.90;;;;;;5035677;28;20022;-90
2023/06/24 07:47:51;;;;;;;3.80;2.90;;;20.80;99.90;;;;;;5035054;28;20371;-92
2023/06/24 07:50:16;;;;;;;5.68;3.05;;;20.80;99.90;;;;;;5035486;28;20037;-92
2023/06/24 07:52:42;;;;;;;5.65;3.03;;;20.90;99.90;;;;;;5035620;28;20034;-90
2023/06/24 07:55:08;;;;;;;4.05;2.85;;;20.90;99.90;;;;;;5034705;28;20029;-90
2023/06/24 07:57:33;;;;;;;3.67;2.75;;;21.00;99.90;;;;;;5035458;28;20052;-90
2023/06/24 07:59:59;;;;;;;5.25;4.00;;;21.10;99.90;;;;;;5051058;28;20497;-91
2023/06/24 08:02:26;;;;;;;7.50;3.35;;;21.10;99.90;;;;;;5045605;28;20022;-93
2023/06/24 08:04:51;;;;;;;4.38;3.53;;;21.10;99.90;;;;;;5041950;28;20037;-92
2023/06/24 08:07:17;;;;;;;5.82;3.20;;;21.20;99.90;;;;;;5049360;28;20105;-92
2023/06/24 08:09:43;;;;;;;5.30;3.50;;;21.30;99.90;;;;;;5048611;28;20068;-90
2023/06/24 08:12:09;;;;;;;6.07;3.03;;;21.30;99.90;;;;;;5037378;28;20417;-88
2023/06/24 08:14:35;;;;;;;4.35;3.30;;;21.30;99.90;;;;;;5039866;28;20079;-84
2023/06/24 08:17:01;;;;;;;6.20;3.35;;;21.30;99.90;;;;;;5043649;28;20021;-83
2023/06/24 08:19:26;;;;;;;5.30;3.42;;;21.40;99.90;;;;;;5055499;28;20476;-84
2023/06/24 08:21:52;;;;;;;6.15;3.55;;;21.50;99.90;;;;;;5055036;28;20484;-86
2023/06/24 08:24:18;;;;;;;5.00;3.30;;;21.50;99.90;;;;;;5039877;28;20116;-85
2023/06/24 08:26:43;;;;;;;4.15;3.35;;;21.50;99.90;;;;;;5040722;28;20017;-83
2023/06/24 08:29:09;;;;;;;5.15;3.00;;;21.50;99.90;;;;;;5054311;28;20080;-85
2023/06/24 08:31:35;;;;;;;5.10;3.22;;;21.50;99.90;;;;;;5052200;28;20044;-88
2023/06/24 08:34:02;;;;;;;6.93;3.10;;;21.60;99.90;;;;;;5053276;28;20031;-90
2023/06/24 08:36:29;;;;;;;4.00;3.10;;;21.60;99.90;;;;;;5037945;28;20025;-84
2023/06/24 08:38:55;;;;;;;6.53;3.38;;;21.70;99.90;;;;;;5020368;28;20049;-84
2023/06/24 08:41:22;;;;;;;5.43;2.90;;;21.70;99.90;;;;;;5036656;28;20463;-86
2023/06/24 08:43:47;;;;;;;5.05;3.38;;;21.80;99.90;;;;;;5036917;28;20030;-86
2023/06/24 08:46:15;;;;;;;5.22;3.42;;;21.80;99.90;;;;;;5035240;28;20036;-86
2023/06/24 08:48:43;;;;;;;4.05;3.25;;;21.90;99.90;;;;;;5053617;28;20067;-87
2023/06/24 08:51:09;;;;;;;4.90;3.15;;;21.90;99.90;;;;;;5035366;28;20030;-84
2023/06/24 08:53:38;;;;;;;6.78;3.33;;;21.90;99.90;;;;;;5035372;28;20025;-82
2023/06/24 08:56:04;;;;;;;4.82;2.95;;;21.90;99.90;;;;;;5033820;28;20026;-84
2023/06/24 08:58:30;;;;;;;4.38;3.20;;;21.90;99.90;;;;;;5048471;28;20048;-82
2023/06/24 09:00:56;;;;;;;5.22;3.17;;;22.00;99.90;;;;;;5053947;28;20025;-86
2023/06/24 09:03:22;;;;;;;3.78;2.65;;;22.20;99.90;;;;;;5050867;28;20027;-86
2023/06/24 09:05:48;;;;;;;3.85;2.67;;;22.30;99.90;;;;;;5048077;28;20093;-88
2023/06/24 09:08:15;;;;;;;2.38;2.17;;;22.40;99.90;;;;;;5056485;28;20474;-86
2023/06/24 09:10:41;;;;;;;5.63;2.63;;;22.50;99.90;;;;;;5045749;28;20043;-87
2023/06/24 09:13:07;;;;;;;5.15;2.65;;;22.50;99.30;;;;;;5040615;28;20025;-86
2023/06/24 09:15:34;;;;;;;4.82;2.53;;;22.60;98.30;;;;;;5042114;28;20116;-89
2023/06/24 09:18:00;;;;;;;4.10;2.10;;;22.80;98.10;;;;;;5053766;28;20036;-87
2023/06/24 09:20:27;;;;;;;6.43;4.68;;;22.80;97.60;;;;;;5037289;28;20042;-91
2023/06/24 09:23:02;;;;;;;16.77;12.55;;;22.80;97.10;;;;;;5035289;28;20064;-89
2023/06/24 09:25:28;;;;;;;9.60;7.97;;;22.80;96.60;;;;;;5046627;28;20036;-85
2023/06/24 09:27:55;;;;;;;4.43;3.20;;;22.70;96.80;;;;;;5051927;28;20043;-90
2023/06/24 09:30:22;;;;;;;5.30;2.20;;;22.80;97.00;;;;;;5053953;28;20029;-90
2023/06/24 09:32:49;;;;;;;3.80;2.33;;;22.80;97.30;;;;;;5042210;28;20098;-88
2023/06/24 09:35:19;;;;;;;4.47;2.45;;;22.80;97.20;;;;;;5036132;28;20138;-86
2023/06/24 09:37:52;;;;;;;4.65;2.58;;;22.80;97.10;;;;;;5037717;28;20068;-85
2023/06/24 09:40:18;;;;;;;5.63;2.42;;;22.80;97.50;;;;;;5038918;28;20470;-83
2023/06/24 09:42:55;;;;;;;3.08;2.22;;;22.90;98.10;;;;;;5031865;28;20040;-80
2023/06/24 09:45:28;;;;;;;4.57;2.50;;;22.90;97.00;;;;;;5034608;28;20026;-81
2023/06/24 09:47:55;;;;;;;3.47;2.58;;;23.00;96.60;;;;;;5034777;28;20084;-82
2023/06/24 09:50:21;;;;;;;2.53;2.05;;;23.00;96.30;;;;;;5036019;28;20083;-81
2023/06/24 09:52:49;;;;;;;4.47;2.50;;;23.00;96.30;;;;;;5042957;28;20025;-84
2023/06/24 09:55:16;;;;;;;2.63;2.38;;;23.10;96.20;;;;;;5050541;28;20017;-84
2023/06/24 09:57:47;;;;;;;3.72;2.20;;;23.30;95.60;;;;;;5038540;28;20021;-89
2023/06/24 10:00:17;;;;;;;2.78;2.13;;;23.30;95.10;;;;;;5036575;28;20140;-90
2023/06/24 10:02:45;;;;;;;2.78;2.17;;;23.30;94.40;;;;;;5024897;28;20065;-87
2023/06/24 10:05:11;;;;;;;5.18;2.63;;;23.40;94.60;;;;;;5035330;28;20085;-89
2023/06/24 10:07:39;;;;;;;3.25;2.33;;;23.50;94.00;;;;;;5035810;28;20463;-85
2023/06/24 10:10:05;;;;;;;3.70;2.47;;;23.50;94.00;;;;;;5033790;28;20025;-86
2023/06/24 10:12:31;;;;;;;2.97;2.30;;;23.60;93.40;;;;;;5027227;28;20086;-88
2023/06/24 10:14:58;;;;;;;4.68;1.92;;;23.60;93.40;;;;;;5019546;28;20027;-86
2023/06/24 10:17:24;;;;;;;3.17;2.05;;;23.60;93.10;;;;;;5033547;28;20100;-89
2023/06/24 10:19:54;;;;;;;3.28;2.40;;;23.60;93.60;;;;;;5031958;28;20156;-90
2023/06/24 10:22:23;;;;;;;2.70;2.05;;;23.60;92.90;;;;;;5032785;28;20053;-89
2023/06/24 10:24:50;;;;;;;2.72;2.10;;;23.70;91.80;;;;;;5031956;28;20029;-94
2023/06/24 10:27:23;;;;;;;2.45;1.73;;;23.70;91.00;;;;;;5031910;28;20037;-93
2023/06/24 10:29:53;;;;;;;2.17;1.80;;;23.70;90.30;;;;;;5033000;28;20032;-92
2023/06/24 10:32:21;;;;;;;6.38;1.90;;;23.80;89.50;;;;;;5032304;28;20436;-93
2023/06/24 10:34:48;;;;;;;3.60;2.00;;;23.90;90.50;;;;;;5034675;28;20083;-88
2023/06/24 10:37:20;;;;;;;3.15;1.60;;;24.00;91.10;;;;;;5036275;28;20121;-90
2023/06/24 10:39:57;;;;;;;3.67;2.33;;;24.10;90.00;;;;;;5037776;28;20105;-87
2023/06/24 10:42:27;;;;;;;4.10;1.63;;;24.10;87.50;;;;;;5026543;28;20057;-90
2023/06/24 10:44:58;;;;;;;3.78;1.90;;;24.20;85.50;;;;;;5016812;28;20117;-87
2023/06/24 10:47:24;;;;;;;;;;;24.20;86.90;;;;;;5026399;28;20455;-87
2023/06/24 10:49:50;;;;;;;1.90;1.70;;;24.20;88.10;;;;;;5038383;28;19909;-91
2023/06/24 10:52:22;;;;;;;5.05;2.05;;;24.30;86.90;;;;;;5037455;28;20033;-92
2023/06/24 10:54:48;;;;;;;3.95;2.25;;;24.30;86.60;;;;;;5039739;28;20451;-93
2023/06/24 10:57:14;;;;;;;3.55;2.03;;;24.30;85.80;;;;;;5037187;28;20406;-88
2023/06/24 10:59:41;;;;;;;3.25;2.50;;;24.40;86.10;;;;;;5038049;28;20046;-90
2023/06/24 11:02:12;;;;;;;2.92;2.00;;;24.40;87.10;;;;;;5036895;28;20064;-91
2023/06/24 11:04:52;;;;;;;3.70;2.25;;;24.50;87.20;;;;;;5036521;28;20070;-92
2023/06/24 11:07:20;;;;;;;3.13;1.80;;;24.60;87.50;;;;;;5037718;28;20156;-85
2023/06/24 11:10:05;;;;;;;3.58;2.05;;;24.70;86.20;;;;;;5037900;28;20030;-89
2023/06/24 11:12:36;;;;;;;3.63;2.05;;;24.70;85.40;;;;;;5036910;28;20112;-91
2023/06/24 11:15:03;;;;;;;3.67;2.13;;;24.70;85.20;;;;;;5037511;28;20028;-91
2023/06/24 11:17:29;;;;;;;3.25;2.50;;;24.70;85.30;;;;;;5036574;28;20072;-82
2023/06/24 11:19:56;;;;;;;3.28;2.45;;;24.70;84.80;;;;;;5036267;28;20114;-93
2023/06/24 11:22:26;;;;;;;3.47;2.40;;;24.80;86.90;;;;;;5037418;28;20060;-92
2023/06/24 11:24:52;;;;;;;6.68;2.30;;;24.90;86.00;;;;;;5039284;28;20471;-86
2023/06/24 11:27:26;;;;;;;3.38;1.98;;;25.00;85.80;;;;;;5037820;28;20457;-85
2023/06/24 11:29:53;;;;;;;3.72;2.22;;;25.10;85.50;;;;;;5035244;28;20057;-89
2023/06/24 11:32:19;;;;;;;4.28;2.08;;;25.20;84.40;;;;;;5035488;28;20068;-88
2023/06/24 11:34:44;;;;;;;3.20;1.88;;;25.30;84.30;;;;;;5035429;28;20168;-84
2023/06/24 11:37:12;;;;;;;3.75;2.45;;;25.40;83.00;;;;;;5034585;28;20112;-85
2023/06/24 11:39:37;;;;;;;2.72;1.95;;;25.40;83.40;;;;;;5036396;28;20029;-85
2023/06/24 11:42:07;;;;;;;2.95;1.90;;;25.30;84.60;;;;;;5027511;28;20538;-93
2023/06/24 11:44:33;;;;;;;2.42;1.77;;;25.40;82.70;;;;;;5021352;28;20063;-91
2023/06/24 11:47:09;;;;;;;2.55;1.90;;;25.50;82.10;;;;;;5035384;28;20025;-91
2023/06/24 11:49:54;;;;;;;2.58;2.03;;;25.50;79.40;;;;;;5037395;28;20057;-90
2023/06/24 11:52:32;;;;;;;2.58;1.80;;;25.40;77.90;;;;;;5035486;28;20463;-86
2023/06/24 11:54:57;;;;;;;4.63;2.10;;;25.30;78.70;;;;;;5022556;28;20057;-84
2023/06/24 11:57:56;;;;;;;3.05;2.35;;;25.30;80.20;;;;;;5037606;28;20509;-89
2023/06/24 12:00:24;;;;;;;2.80;2.03;;;25.30;81.00;;;;;;5053157;28;20049;-88
2023/06/24 12:02:52;;;;;;;2.80;2.00;;;25.30;80.40;;;;;;5055384;28;20060;-88
2023/06/24 12:05:25;;;;;;;2.10;1.80;;;25.30;80.70;;;;;;5048435;28;20018;-92
2023/06/24 12:07:54;;;;;;;3.53;1.92;;;25.40;81.10;;;;;;5038118;28;20029;-87
2023/06/24 12:10:19;;;;;;;2.78;1.90;;;25.40;82.10;;;;;;5053028;28;20040;-84
2023/06/24 12:12:45;;;;;;;3.78;2.35;;;25.40;81.10;;;;;;5041272;28;20374;-84
2023/06/24 12:15:10;;;;;;;3.35;2.35;;;25.40;79.20;;;;;;5023557;28;20029;-84
2023/06/24 12:17:36;;;;;;;3.63;2.13;;;25.50;78.20;;;;;;5036228;28;20105;-88
2023/06/24 12:20:02;;;;;;;3.83;2.38;;;25.40;78.60;;;;;;5035073;28;20474;-88
2023/06/24 12:22:27;;;;;;;3.08;2.00;;;25.50;78.40;;;;;;5052726;28;20099;-89
2023/06/24 12:24:53;;;;;;;2.55;1.80;;;25.50;78.80;;;;;;5050735;28;20065;-91
2023/06/24 12:27:18;;;;;;;3.05;1.88;;;25.60;79.50;;;;;;5054169;28;20381;-90
2023/06/24 12:29:44;;;;;;;3.08;1.90;;;25.70;74.20;;;;;;5054787;28;20021;-89
2023/06/24 12:32:09;;;;;;;2.97;2.20;;;25.80;76.00;;;;;;5055051;28;20071;-91
2023/06/24 12:34:35;;;;;;;3.22;2.00;;;25.90;75.20;;;;;;5038336;28;20120;-90
2023/06/24 12:37:01;;;;;;;3.70;1.98;;;25.90;76.30;;;;;;5036680;28;20060;-90
2023/06/24 12:39:26;;;;;;;2.20;1.67;;;25.90;75.70;;;;;;5047560;28;20537;-89
2023/06/24 12:41:52;;;;;;;2.80;1.75;;;25.90;75.00;;;;;;5030280;28;20394;-86
2023/06/24 12:44:17;;;;;;;2.45;2.00;;;25.90;77.20;;;;;;5020906;28;20177;-92
2023/06/24 12:46:43;;;;;;;2.63;1.90;;;26.10;76.20;;;;;;5021221;28;20029;-92
2023/06/24 12:49:09;;;;;;;3.08;2.13;;;26.30;75.00;;;;;;5022109;28;20056;-92